• Join FlightAware (Why Join?)
  • Login
  • US Flag 
05:24PM EDT


 

Airport Tracker/Info


-or-


 

Live Flight TrackerFlight Track Log ✈ THY2229 ✈ 05-Jul-2013 ✈ LTAJ / GZT - LTBA / IST

Flight Track Log - Related Links

Times and Time Zones

All times are in EDT time to prevent confusion due to time zone crossing. See the THY2229 flight status page for this flight to view local times or setup timezone preferences in your user account.

Time Position Orientation Groundspeed Altitude Reporting Facility
EDT Latitude Longitude Course Direction KTS MPH feet Rate Location/Type
04:53PM 37.2204 36.9598 304° West  Level Estimated
04:54PM 37.2747 36.8556 303° West  Level Estimated
04:55PM 37.3290 36.7512 303° West  Level Estimated
04:56PM 37.3832 36.6467 303° West  Level Estimated
04:57PM 37.4373 36.5420 303° West  Level Estimated
04:58PM 37.4912 36.4371 303° West  Level Estimated
04:59PM 37.5452 36.3322 303° West  Level Estimated
05:00PM 37.5990 36.2270 303° West  Level Estimated
05:01PM 37.6527 36.1218 303° West  Level Estimated
05:02PM 37.7063 36.0163 303° West  Level Estimated
05:03PM 37.7598 35.9107 303° West  Level Estimated
05:04PM 37.8133 35.8050 303° West  Level Estimated
05:05PM 37.8666 35.6991 303° West  Level Estimated
05:06PM 37.9198 35.5930 302° West  Level Estimated
05:07PM 37.9730 35.4868 302° West  Level Estimated
05:08PM 38.0260 35.3805 302° West  Level Estimated
05:09PM 38.0790 35.2740 302° West  Level Estimated
05:10PM 38.1319 35.1673 302° West  Level Estimated
05:11PM 38.1846 35.0605 302° West  Level Estimated
05:12PM 38.2373 34.9535 302° West  Level Estimated
05:13PM 38.2899 34.8464 302° West  Level Estimated
05:14PM 38.3423 34.7391 302° West  Level Estimated
05:15PM 38.3947 34.6317 302° West  Level Estimated
05:16PM 38.4470 34.5241 302° West  Level Estimated
05:17PM 38.4992 34.4163 302° West  Level Estimated
05:18PM 38.5512 34.3084 302° West  Level Estimated
05:19PM 38.6032 34.2004 302° West  Level Estimated
05:20PM 38.6551 34.0921 302° West  Level Estimated
05:21PM 38.7069 33.9838 302° West  Level Estimated
05:22PM 38.7586 33.8752 301° West  Level Estimated
05:23PM 38.8101 33.7665 301° West  Level Estimated
05:24PM 38.8616 33.6577 301° West  Level Estimated
05:25PM 38.9130 33.5487 301° West  Level Estimated
05:26PM 38.9643 33.4395 301° West  Level Estimated
05:27PM 39.0154 33.3302 301° West  Level Estimated
05:28PM 39.0665 33.2207 301° West  Level Estimated
05:29PM 39.1175 33.1111 301° West  Level Estimated
05:30PM 39.1684 33.0013 301° West  Level Estimated
05:31PM 39.2191 32.8913 301° West  Level Estimated
05:32PM 39.2698 32.7812 301° West  Level Estimated
05:33PM 39.3203 32.6710 301° West  Level Estimated
05:34PM 39.3708 32.5605 301° West  Level Estimated
05:35PM 39.4211 32.4499 301° West  Level Estimated
05:36PM 39.4714 32.3392 300° West  Level Estimated
05:37PM 39.5215 32.2283 300° West  Level Estimated
05:38PM 39.5715 32.1172 300° West  Level Estimated
05:39PM 39.6215 32.0060 300° West  Level Estimated
05:40PM 39.6713 31.8946 300° West  Level Estimated
05:41PM 39.7210 31.7830 300° West  Level Estimated
05:42PM 39.7706 31.6713 300° West  Level Estimated
05:43PM 39.8201 31.5595 300° West  Level Estimated
05:44PM 39.8695 31.4474 300° West  Level Estimated
05:45PM 39.9188 31.3352 300° West  Level Estimated
05:46PM 39.9680 31.2229 300° West  Level Estimated
05:47PM 40.0170 31.1103 300° West  Level Estimated
05:48PM 40.0660 30.9977 300° West  Level Estimated
05:49PM 40.1148 30.8848 300° West  Level Estimated
05:50PM 40.1636 30.7718 299° West  Level Estimated
05:51PM 40.2122 30.6586 299° West  Level Estimated
05:52PM 40.2607 30.5453 299° West  Level Estimated
05:53PM 40.3091 30.4318 299° West  Level Estimated
05:54PM 40.3574 30.3181 299° West  Level Estimated
05:55PM 40.4056 30.2043 299° West  Level Estimated
05:56PM 40.4537 30.0903 299° West  Level Estimated
05:57PM 40.5017 29.9762 299° West  Level Estimated
05:58PM 40.5495 29.8619 299° West  Level Estimated
05:59PM 40.5972 29.7474 299° West  Level Estimated
06:00PM 40.6449 29.6328 299° West  Level Estimated
06:01PM 40.6924 29.5180 299° West  Level Estimated
06:02PM 40.7398 29.4030 299° West  Level Estimated
06:03PM 40.7870 29.2879 299° West  Level Estimated
06:04PM 40.8342 29.1726 298° West  Level Estimated
06:05PM 40.8813 29.0572 298° West  Level Estimated
06:06PM 40.9282 28.9415 298° West  Level Estimated
06:07PM 40.9750 28.8258 298° West  Level Estimated
06:08PM 40.9769 28.8211 298° West  Level Estimated
06:09PM 40.9769 28.8211 21° North  Level Estimated
06:10PM 40.9769 28.8211 21° North  Level Estimated
06:11PM 40.9769 28.8211 21° North  Level Estimated
06:12PM 40.9769 28.8211 21° North  Level Estimated
06:13PM 40.9769 28.8211 21° North  Level Estimated
06:14PM 40.9769 28.8211 21° North  Level Estimated
06:15PM 40.9769 28.8211 21° North  Level Estimated
06:16PM 40.9769 28.8211 21° North  Level Estimated
06:17PM 40.9769 28.8211 21° North  Level Estimated
06:18PM 40.9769 28.8211 21° North  Level Estimated
06:19PM 40.9769 28.8211 21° North  Level Estimated
06:20PM 40.9769 28.8211 21° North  Level Estimated
06:21PM 40.9769 28.8211 21° North  Level Estimated
06:22PM 40.9769 28.8211 21° North  Level Estimated
06:23PM 40.9769 28.8211 21° North  Level Estimated